This is the latest recevied weather packets stored in our database for station/object NW5W-12. If no packets are shown the sender has not sent any weather packets the latest 1 day(s).
| Time | Temp. | Humidity | Pressure | Rain* | Wind** | Luminosity | Snow |
|---|---|---|---|---|---|---|---|
| 1778050842 | 7.22° C | 70% | 1014 hPa | 0 mm | 0.89 m/s, 340° | - | - |
| 1778050242 | 7.22° C | 70% | 1013.9 hPa | 0 mm | 0 m/s | - | - |
| 1778049942 | 7.22° C | 69% | 1013.9 hPa | 0 mm | 1.34 m/s, 260° | - | - |
| 1778049642 | 7.22° C | 68% | 1013.8 hPa | 0 mm | 0.89 m/s, 219° | - | - |
| 1778049342 | 7.22° C | 68% | 1013.7 hPa | 0 mm | 0 m/s | - | - |
| 1778049042 | 7.22° C | 67% | 1013.6 hPa | 0 mm | 0.89 m/s, 208° | - | - |
| 1778048742 | 7.22° C | 68% | 1013.5 hPa | 0 mm | 1.34 m/s, 226° | - | - |
| 1778048442 | 7.22° C | 68% | 1013.3 hPa | 0 mm | 1.34 m/s, 203° | - | - |
| 1778048142 | 7.22° C | 68% | 1013.3 hPa | 0 mm | 0.45 m/s, 185° | - | - |
| 1778047842 | 7.78° C | 67% | 1013.4 hPa | 0 mm | 0 m/s | - | - |
| 1778047542 | 7.78° C | 67% | 1013.5 hPa | 0 mm | 0.45 m/s, 311° | - | - |
| 1778047242 | 7.78° C | 66% | 1013.6 hPa | 0 mm | 1.79 m/s, 313° | - | - |
| 1778046942 | 7.22° C | 66% | 1013.6 hPa | 0.51 mm | 1.34 m/s, 340° | - | - |
| 1778046642 | 7.22° C | 67% | 1013.4 hPa | 0.51 mm | 0.45 m/s, 114° | - | - |
| 1778046342 | 7.22° C | 68% | 1013.4 hPa | 0.51 mm | 0.45 m/s, 179° | - | - |
| 1778046042 | 7.22° C | 68% | 1013.2 hPa | 0.51 mm | 0.89 m/s, 159° | - | - |
| 1778045742 | 7.22° C | 68% | 1013.1 hPa | 0.51 mm | 0.89 m/s, 160° | - | - |
| 1778045442 | 7.22° C | 69% | 1013 hPa | 0.51 mm | 0.89 m/s, 139° | - | - |
| 1778045142 | 7.22° C | 68% | 1012.9 hPa | 0.51 mm | 0.89 m/s, 161° | - | - |
| 1778044842 | 7.22° C | 68% | 1012.9 hPa | 0.51 mm | 1.79 m/s, 163° | - | - |
| 1778044542 | 7.22° C | 69% | 1012.9 hPa | 0.51 mm | 1.79 m/s, 152° | - | - |
| 1778044242 | 6.67° C | 71% | 1012.8 hPa | 0.51 mm | 2.24 m/s, 160° | - | - |
| 1778043942 | 6.67° C | 71% | 1012.7 hPa | 0.51 mm | 1.79 m/s, 160° | - | - |
| 1778043642 | 6.67° C | 71% | 1012.6 hPa | 0.51 mm | 0.89 m/s, 166° | - | - |
| 1778043342 | 6.67° C | 72% | 1012.7 hPa | 0.51 mm | 1.34 m/s, 166° | - | - |
* Rain since midnight (hover to see other rain measurements)
** Current wind speed in m/s (hover to see current wind gust speed)